createdAt,value
2023-08-04T00:02:17.857Z,93092.94
2023-08-04T00:05:21.313Z,93083.03
2023-08-04T00:08:24.821Z,93085.09
2023-08-04T00:11:28.440Z,93079.16
2023-08-04T00:14:32.193Z,93081.97
2023-08-04T00:17:38.100Z,93083.09
2023-08-04T00:20:41.788Z,93081.38
2023-08-04T00:23:45.208Z,93083.91
2023-08-04T00:26:48.842Z,93074.53
2023-08-04T00:29:52.387Z,93088.00
2023-08-04T00:32:56.316Z,93081.31
2023-08-04T00:36:00.120Z,93085.00
2023-08-04T00:39:05.320Z,93085.66
2023-08-04T00:42:09.267Z,93081.44
2023-08-04T00:45:12.876Z,93084.47
2023-08-04T00:48:16.856Z,93088.03
2023-08-04T00:51:20.712Z,93087.25
2023-08-04T00:54:24.669Z,93087.63
2023-08-04T00:57:28.288Z,93087.31
2023-08-04T01:00:31.764Z,93077.44
2023-08-04T01:03:36.312Z,93082.84
2023-08-04T01:06:47.848Z,93074.78
2023-08-04T01:09:57.478Z,93069.13
2023-08-04T01:13:06.807Z,93072.69
2023-08-04T01:16:10.738Z,93071.81
2023-08-04T01:19:14.271Z,93063.56
2023-08-04T01:22:18.228Z,93065.00
2023-08-04T01:25:41.995Z,93062.28
2023-08-04T01:28:48.420Z,93062.91
2023-08-04T01:31:52.690Z,93065.06
2023-08-04T01:34:56.548Z,93059.81
2023-08-04T01:38:00.097Z,93052.75
2023-08-04T01:41:03.612Z,93060.97
2023-08-04T01:44:07.131Z,93056.38
2023-08-04T01:47:10.644Z,93057.44
2023-08-04T01:50:14.175Z,93064.97
2023-08-04T01:53:17.612Z,93055.53
2023-08-04T01:56:20.973Z,93059.88
2023-08-04T01:59:24.345Z,93062.59
2023-08-04T02:02:28.157Z,93060.59
2023-08-04T02:05:35.242Z,93058.16
2023-08-04T02:08:38.690Z,93061.28
2023-08-04T02:11:43.257Z,93060.81
2023-08-04T02:14:46.706Z,93053.28
2023-08-04T02:17:50.129Z,93050.25
2023-08-04T02:20:53.665Z,93044.91
2023-08-04T02:23:57.505Z,93042.28
2023-08-04T02:27:01.057Z,93034.06
2023-08-04T02:30:04.883Z,93029.81
2023-08-04T02:33:08.494Z,93028.22
2023-08-04T02:36:13.342Z,93026.34
2023-08-04T02:39:16.865Z,93029.81
2023-08-04T02:42:20.478Z,93024.63
2023-08-04T02:45:24.168Z,93020.19
2023-08-04T02:48:27.745Z,93011.94
2023-08-04T02:51:31.764Z,93022.53
2023-08-04T02:54:35.130Z,93009.88
2023-08-04T02:57:38.684Z,93020.75
2023-08-04T03:00:42.801Z,93016.69
2023-08-04T03:03:46.145Z,93019.03
2023-08-04T03:06:49.676Z,93017.06
2023-08-04T03:09:53.205Z,93015.34
2023-08-04T03:12:56.729Z,93012.59
2023-08-04T03:16:01.935Z,93008.59
2023-08-04T03:19:05.517Z,93001.19
2023-08-04T03:22:08.954Z,93002.84
2023-08-04T03:25:12.521Z,93006.59
2023-08-04T03:28:16.168Z,93002.03
2023-08-04T03:31:19.749Z,92999.66
2023-08-04T03:34:23.288Z,93010.38
2023-08-04T03:37:26.745Z,92995.81
2023-08-04T03:40:30.291Z,92996.94
2023-08-04T03:43:33.746Z,92985.75
2023-08-04T03:46:37.204Z,92991.66
2023-08-04T03:49:40.990Z,92979.81
2023-08-04T03:52:44.549Z,92990.97
2023-08-04T03:55:47.921Z,92982.53
2023-08-04T03:58:52.304Z,92976.78
2023-08-04T04:01:55.972Z,92976.38
2023-08-04T04:04:59.688Z,92973.38
2023-08-04T04:08:03.333Z,92972.59
2023-08-04T04:11:06.894Z,92976.53
2023-08-04T04:14:13.098Z,92971.94
2023-08-04T04:17:16.748Z,92966.34
2023-08-04T04:20:20.152Z,92970.41
2023-08-04T04:23:23.869Z,92959.50
2023-08-04T04:26:27.448Z,92952.41
2023-08-04T04:29:31.067Z,92955.03
2023-08-04T04:32:34.635Z,92954.09
2023-08-04T04:35:38.090Z,92946.06
2023-08-04T04:38:41.598Z,92940.75
2023-08-04T04:41:45.760Z,92955.56
2023-08-04T04:44:49.648Z,92956.34
2023-08-04T04:58:45.031Z,92945.53
2023-08-04T05:01:48.703Z,92934.41
2023-08-04T05:04:52.498Z,92950.00
2023-08-04T05:07:56.131Z,92948.03
2023-08-04T05:11:02.287Z,92946.72
2023-08-04T05:14:06.083Z,92940.69
2023-08-04T05:17:09.619Z,92938.50
2023-08-04T05:20:14.273Z,92931.59
2023-08-04T05:23:18.381Z,92928.06
2023-08-04T05:26:22.101Z,92933.22
2023-08-04T05:29:25.709Z,92931.22
2023-08-04T05:32:29.746Z,92931.53
2023-08-04T05:35:33.768Z,92933.22
2023-08-04T05:38:37.459Z,92929.00
2023-08-04T05:41:41.123Z,92934.84
2023-08-04T05:44:44.830Z,92933.38
2023-08-04T05:47:49.669Z,92941.13
2023-08-04T05:50:58.831Z,92933.44
2023-08-04T05:54:02.635Z,92936.34
2023-08-04T05:57:06.524Z,92932.78
2023-08-04T06:00:10.529Z,92935.59
2023-08-04T06:03:14.354Z,92930.38
2023-08-04T06:06:17.849Z,92932.31
2023-08-04T06:09:21.451Z,92929.19
2023-08-04T06:12:25.133Z,92932.81
2023-08-04T06:15:28.893Z,92942.72
2023-08-04T06:18:32.512Z,92933.13
2023-08-04T06:21:37.817Z,92928.22
2023-08-04T06:24:41.593Z,92929.09
2023-08-04T06:27:45.332Z,92935.69
2023-08-04T06:30:48.717Z,92928.13
2023-08-04T06:33:52.432Z,92927.28
2023-08-04T06:36:56.036Z,92922.91
2023-08-04T06:39:59.654Z,92925.31
2023-08-04T06:43:03.342Z,92924.72
2023-08-04T06:46:06.885Z,92924.69
2023-08-04T06:49:10.517Z,92922.50
2023-08-04T06:52:14.281Z,92925.53
2023-08-04T06:55:17.532Z,92928.03
2023-08-04T06:58:21.115Z,92928.41
2023-08-04T07:01:24.813Z,92921.41
2023-08-04T07:04:28.531Z,92921.41
2023-08-04T07:07:32.042Z,92919.97
2023-08-04T07:10:37.348Z,92919.84
2023-08-04T07:13:40.850Z,92913.09
2023-08-04T07:16:48.049Z,92914.44
2023-08-04T07:19:51.635Z,92904.84
2023-08-04T07:22:55.270Z,92913.75
2023-08-04T07:25:59.539Z,92913.38
2023-08-04T07:29:06.213Z,92918.09
2023-08-04T07:32:10.021Z,92920.84
2023-08-04T07:35:13.686Z,92917.28
2023-08-04T07:38:17.176Z,92924.44
2023-08-04T07:41:26.334Z,92920.88
2023-08-04T07:44:31.815Z,92925.94
2023-08-04T07:47:35.402Z,92913.66
2023-08-04T07:50:41.033Z,92924.03
2023-08-04T07:53:44.353Z,92918.59
2023-08-04T07:56:47.973Z,92927.63
2023-08-04T07:59:52.650Z,92917.03
2023-08-04T08:02:56.209Z,92922.13
2023-08-04T08:06:00.200Z,92926.66
2023-08-04T08:09:03.735Z,92924.56
2023-08-04T08:12:08.094Z,92927.97
2023-08-04T08:15:12.315Z,92931.53
2023-08-04T08:18:16.247Z,92926.66
2023-08-04T08:21:19.616Z,92933.72
2023-08-04T08:24:23.169Z,92937.25
2023-08-04T08:27:26.880Z,92933.03
2023-08-04T08:30:30.790Z,92931.59
2023-08-04T08:33:34.471Z,92935.28
2023-08-04T08:36:38.218Z,92933.88
2023-08-04T08:39:41.827Z,92943.25
2023-08-04T08:42:45.376Z,92940.66
2023-08-04T08:45:50.112Z,92945.41
2023-08-04T08:48:59.372Z,92947.56
2023-08-04T08:52:03.908Z,92949.06
2023-08-04T08:55:08.148Z,92937.13
2023-08-04T08:58:12.716Z,92939.69
2023-08-04T09:01:19.642Z,92946.41
2023-08-04T09:04:24.931Z,92938.56
2023-08-04T09:07:28.932Z,92950.78
2023-08-04T09:10:36.326Z,92945.84
2023-08-04T09:13:44.259Z,92949.59
2023-08-04T09:16:50.648Z,92953.22
2023-08-04T09:19:54.069Z,92958.69
2023-08-04T09:22:58.199Z,92952.34
2023-08-04T09:26:01.819Z,92949.06
2023-08-04T09:29:07.570Z,92953.09
2023-08-04T09:32:15.346Z,92953.09
2023-08-04T09:35:19.297Z,92954.22
2023-08-04T09:38:25.846Z,92959.69
2023-08-04T09:41:29.533Z,92959.91
2023-08-04T09:44:38.922Z,92965.28
2023-08-04T09:47:50.954Z,92960.56
2023-08-04T09:51:17.693Z,92963.97
2023-08-04T09:54:21.393Z,92964.72
2023-08-04T09:57:25.830Z,92964.94
2023-08-04T10:00:29.862Z,92961.00
2023-08-04T10:03:35.500Z,92963.88
2023-08-04T10:06:41.616Z,92970.56
2023-08-04T10:09:46.462Z,92964.53
2023-08-04T10:12:50.214Z,92975.81
2023-08-04T10:15:55.708Z,92964.53
2023-08-04T10:19:11.925Z,92962.53
2023-08-04T10:22:15.518Z,92972.84
2023-08-04T10:25:19.244Z,92965.41
2023-08-04T10:28:23.619Z,92969.56
2023-08-04T10:31:44.258Z,92968.16
2023-08-04T10:34:52.910Z,92970.00
2023-08-04T10:38:01.942Z,92970.22
2023-08-04T10:41:08.580Z,92983.47
2023-08-04T10:44:12.198Z,92980.09
2023-08-04T10:47:15.915Z,92992.78
2023-08-04T10:50:25.221Z,92985.66
2023-08-04T10:53:29.309Z,92992.00
2023-08-04T10:56:32.833Z,92986.06
2023-08-04T10:59:36.372Z,92991.88
2023-08-04T11:02:40.477Z,92992.09
2023-08-04T11:05:44.441Z,92987.03
2023-08-04T11:08:48.084Z,93000.59
2023-08-04T11:11:52.049Z,93003.47
2023-08-04T11:14:56.192Z,93000.91
2023-08-04T11:18:00.116Z,93006.81
2023-08-04T11:21:04.707Z,93003.72
2023-08-04T11:24:11.998Z,93007.66
2023-08-04T11:27:17.281Z,93017.16
2023-08-04T11:30:20.849Z,93007.47
2023-08-04T11:33:24.259Z,93014.75
2023-08-04T11:36:29.856Z,93015.16
2023-08-04T11:39:33.340Z,93016.31
2023-08-04T11:42:39.500Z,93015.38
2023-08-04T11:45:50.209Z,93021.25
2023-08-04T11:49:06.259Z,93019.25
2023-08-04T11:52:14.138Z,93023.97
2023-08-04T11:55:18.232Z,93031.31
2023-08-04T11:58:34.171Z,93017.81
2023-08-04T12:01:39.057Z,93032.31
2023-08-04T12:04:44.723Z,93026.66
2023-08-04T12:07:48.473Z,93025.78
2023-08-04T12:11:04.763Z,93034.88
2023-08-04T12:14:12.590Z,93038.03
2023-08-04T12:17:16.421Z,93039.25
2023-08-04T12:20:20.415Z,93044.53
2023-08-04T12:23:24.256Z,93043.56
2023-08-04T12:26:27.905Z,93044.88
2023-08-04T12:29:31.467Z,93046.03
2023-08-04T12:32:35.230Z,93055.28
2023-08-04T12:35:38.866Z,93051.81
2023-08-04T12:38:42.366Z,93050.88
2023-08-04T12:41:46.040Z,93054.56
2023-08-04T12:44:51.027Z,93054.97
2023-08-04T12:47:55.324Z,93056.75
2023-08-04T12:50:59.024Z,93045.47
2023-08-04T12:54:02.698Z,93056.75
2023-08-04T12:57:09.575Z,93052.47
2023-08-04T13:00:17.229Z,93056.81
2023-08-04T13:03:22.265Z,93068.72
2023-08-04T13:06:26.146Z,93062.28
2023-08-04T13:09:29.843Z,93063.22
2023-08-04T13:12:33.728Z,93062.88
2023-08-04T13:15:37.619Z,93060.19
2023-08-04T13:18:41.424Z,93065.78
2023-08-04T13:21:45.027Z,93055.16
2023-08-04T13:24:49.023Z,93064.41
2023-08-04T13:27:52.569Z,93059.88
2023-08-04T13:30:56.124Z,93059.50
2023-08-04T13:33:59.535Z,93060.50
2023-08-04T13:37:03.178Z,93063.25
2023-08-04T13:40:07.322Z,93058.97
2023-08-04T13:43:11.232Z,93067.91
2023-08-04T13:46:15.848Z,93068.94
2023-08-04T13:49:19.388Z,93071.91
2023-08-04T13:52:23.367Z,93064.66
2023-08-04T13:55:26.948Z,93062.91
2023-08-04T13:58:30.850Z,93059.88
2023-08-04T14:01:34.428Z,93066.22
2023-08-04T14:04:38.783Z,93062.16
2023-08-04T14:07:45.595Z,93056.97
2023-08-04T14:10:49.200Z,93063.13
2023-08-04T14:13:52.803Z,93064.69
2023-08-04T14:16:56.460Z,93059.03
2023-08-04T14:20:07.031Z,93060.56
2023-08-04T14:23:10.854Z,93068.66
2023-08-04T14:26:14.491Z,93064.97
2023-08-04T14:29:19.364Z,93069.22
2023-08-04T14:32:23.068Z,93067.50
2023-08-04T14:35:26.788Z,93063.06
2023-08-04T14:38:30.369Z,93076.28
2023-08-04T14:41:33.934Z,93064.22
2023-08-04T14:44:38.115Z,93067.63
2023-08-04T14:47:41.787Z,93075.97
2023-08-04T14:50:45.710Z,93074.16
2023-08-04T14:53:49.212Z,93062.38
2023-08-04T14:56:52.884Z,93061.31
2023-08-04T14:59:56.342Z,93066.97
2023-08-04T15:02:59.982Z,93068.53
2023-08-04T15:06:17.520Z,93068.72
2023-08-04T15:09:21.297Z,93066.44
2023-08-04T15:12:26.316Z,93078.19
2023-08-04T15:15:29.733Z,93072.81
2023-08-04T15:18:33.812Z,93076.44
2023-08-04T15:21:37.449Z,93075.94
2023-08-04T15:24:41.005Z,93072.63
2023-08-04T15:27:44.818Z,93081.38
2023-08-04T15:30:48.476Z,93070.56
2023-08-04T15:33:52.291Z,93069.94
2023-08-04T15:36:55.777Z,93078.81
2023-08-04T15:39:59.348Z,93067.53
2023-08-04T15:43:03.016Z,93069.75
2023-08-04T15:46:07.128Z,93069.22
2023-08-04T15:49:10.769Z,93072.03
2023-08-04T15:52:14.400Z,93077.47
2023-08-04T15:55:17.871Z,93078.97
2023-08-04T15:58:21.541Z,93084.47
2023-08-04T16:01:25.225Z,93091.28
2023-08-04T16:04:28.798Z,93096.19
2023-08-04T16:07:32.480Z,93099.81
2023-08-04T16:10:36.372Z,93112.25
2023-08-04T16:13:39.988Z,93121.25
2023-08-04T16:16:43.716Z,93127.44
2023-08-04T16:19:53.101Z,93128.72
2023-08-04T16:22:58.858Z,93121.94
2023-08-04T16:26:04.135Z,93128.72
2023-08-04T16:29:07.521Z,93122.63
2023-08-04T16:32:11.135Z,93127.34
2023-08-04T16:35:14.720Z,93132.16
2023-08-04T16:38:18.267Z,93126.78
2023-08-04T16:41:22.061Z,93132.19
2023-08-04T16:44:25.712Z,93128.22
2023-08-04T16:47:29.238Z,93124.19
2023-08-04T16:50:35.339Z,93130.97
2023-08-04T16:53:38.821Z,93131.09
2023-08-04T16:56:42.385Z,93123.63
2023-08-04T16:59:49.515Z,93128.31
2023-08-04T17:02:53.601Z,93119.59
2023-08-04T17:05:57.438Z,93117.53
2023-08-04T17:09:00.959Z,93127.03
2023-08-04T17:12:04.737Z,93121.69
2023-08-04T17:15:10.913Z,93129.16
2023-08-04T17:18:14.707Z,93127.22
2023-08-04T17:21:18.382Z,93121.91
2023-08-04T17:24:22.943Z,93122.56
2023-08-04T17:27:26.675Z,93120.56
2023-08-04T17:30:30.293Z,93120.59
2023-08-04T17:33:34.685Z,93123.28
2023-08-04T17:36:39.151Z,93119.22
2023-08-04T17:39:42.788Z,93111.81
2023-08-04T17:42:46.250Z,93121.25
2023-08-04T17:45:50.418Z,93119.97
2023-08-04T17:48:53.810Z,93121.41
2023-08-04T17:51:57.386Z,93122.81
2023-08-04T17:55:00.972Z,93122.22
2023-08-04T17:58:04.716Z,93117.56
2023-08-04T18:01:08.860Z,93120.31
2023-08-04T18:04:13.815Z,93130.44
2023-08-04T18:07:17.791Z,93135.16
2023-08-04T18:10:21.494Z,93137.19
2023-08-04T18:13:25.022Z,93144.59
2023-08-04T18:16:28.790Z,93143.25
2023-08-04T18:19:32.243Z,93151.34
2023-08-04T18:22:36.074Z,93147.31
2023-08-04T18:25:42.561Z,93141.91
2023-08-04T18:28:46.128Z,93141.91
2023-08-04T18:31:49.710Z,93141.94
2023-08-04T18:34:53.530Z,93145.97
2023-08-04T18:37:56.874Z,93148.63
2023-08-04T18:41:05.549Z,93150.63
2023-08-04T18:44:11.053Z,93149.97
2023-08-04T18:47:14.574Z,93148.59
2023-08-04T18:50:18.338Z,93150.63
2023-08-04T18:53:22.123Z,93149.97
2023-08-04T18:56:26.759Z,93155.34
2023-08-04T18:59:30.222Z,93158.03
2023-08-04T19:02:34.043Z,93145.28
2023-08-04T19:05:37.829Z,93146.63
2023-08-04T19:08:41.414Z,93147.97
2023-08-04T19:11:45.035Z,93140.63
2023-08-04T19:14:48.470Z,93139.25
2023-08-04T19:17:52.225Z,93143.31
2023-08-04T19:20:55.789Z,93148.00
2023-08-04T19:23:59.433Z,93154.06
2023-08-04T19:27:02.986Z,93150.72
2023-08-04T19:30:07.532Z,93150.69
2023-08-04T19:33:10.990Z,93148.69
2023-08-04T19:36:14.500Z,93150.03
2023-08-04T19:39:17.937Z,93158.09
2023-08-04T19:42:21.536Z,93154.75
2023-08-04T19:45:25.188Z,93151.38
2023-08-04T19:48:29.264Z,93155.41
2023-08-04T19:51:32.974Z,93150.69
2023-08-04T19:54:36.644Z,93154.75
2023-08-04T19:57:40.222Z,93156.75
2023-08-04T20:00:43.696Z,93156.75
2023-08-04T20:03:47.860Z,93157.44
2023-08-04T20:06:51.733Z,93162.13
2023-08-04T20:09:55.345Z,93156.06
2023-08-04T20:12:58.985Z,93162.06
2023-08-04T20:16:21.211Z,93161.41
2023-08-04T20:19:25.014Z,93166.09
2023-08-04T20:22:29.500Z,93163.38
2023-08-04T20:25:35.973Z,93168.09
2023-08-04T20:28:40.216Z,93165.41
2023-08-04T20:31:43.783Z,93164.69
2023-08-04T20:34:47.449Z,93153.94
2023-08-04T20:37:51.050Z,93143.88
2023-08-04T20:41:19.050Z,93156.59
2023-08-04T20:44:22.589Z,93139.84
2023-08-04T20:47:26.313Z,93143.19
2023-08-04T20:50:29.966Z,93138.50
2023-08-04T20:53:38.853Z,93132.44
2023-08-04T20:56:42.515Z,93126.38
2023-08-04T20:59:46.049Z,93126.34
2023-08-04T21:02:49.644Z,93126.97
2023-08-04T21:05:53.373Z,93120.25
2023-08-04T21:08:56.845Z,93119.53
2023-08-04T21:12:00.420Z,93130.31
2023-08-04T21:15:05.820Z,93129.59
2023-08-04T21:18:09.580Z,93151.72
2023-08-04T21:21:13.246Z,93153.69
2023-08-04T21:24:16.822Z,93150.28
2023-08-04T21:27:20.542Z,93165.72
2023-08-04T21:30:24.251Z,93165.69
2023-08-04T21:33:27.755Z,93162.97
2023-08-04T21:36:32.003Z,93166.34
2023-08-04T21:39:35.611Z,93175.75
2023-08-04T21:42:39.357Z,93177.78
2023-08-04T21:45:43.069Z,93177.84
2023-08-04T21:48:46.662Z,93173.91
2023-08-04T21:51:50.262Z,93176.69
2023-08-04T21:54:57.280Z,93180.09
2023-08-04T21:58:00.966Z,93180.78
2023-08-04T22:01:12.583Z,93176.78
2023-08-04T22:04:16.220Z,93183.53
2023-08-04T22:07:19.837Z,93182.19
2023-08-04T22:10:23.372Z,93186.22
2023-08-04T22:13:27.532Z,93190.28
2023-08-04T22:16:31.011Z,93199.03
2023-08-04T22:19:34.537Z,93191.66
2023-08-04T22:22:38.274Z,93195.00
2023-08-04T22:25:41.871Z,93201.75
2023-08-04T22:28:45.479Z,93193.00
2023-08-04T22:31:49.204Z,93191.66
2023-08-04T22:34:53.207Z,93191.00
2023-08-04T22:37:56.700Z,93188.34
2023-08-04T22:41:01.848Z,93176.91
2023-08-04T22:44:05.634Z,93170.19
2023-08-04T22:47:09.364Z,93166.84
2023-08-04T22:50:12.950Z,93171.53
2023-08-04T22:53:16.377Z,93168.84
2023-08-04T22:56:19.903Z,93164.81
2023-08-04T22:59:23.559Z,93166.81
2023-08-04T23:02:27.479Z,93171.53
2023-08-04T23:05:34.572Z,93169.47
2023-08-04T23:08:38.259Z,93164.09
2023-08-04T23:11:41.843Z,93174.19
2023-08-04T23:14:45.373Z,93172.13
2023-08-04T23:17:49.141Z,93171.47
2023-08-04T23:20:52.905Z,93171.38
2023-08-04T23:23:56.526Z,93173.38
2023-08-04T23:26:59.988Z,93168.59
2023-08-04T23:30:03.436Z,93171.22
2023-08-04T23:33:07.019Z,93159.72
2023-08-04T23:36:10.897Z,93156.94
2023-08-04T23:39:15.238Z,93166.28
2023-08-04T23:42:18.670Z,93162.81
2023-08-04T23:45:22.121Z,93158.63
2023-08-04T23:48:25.871Z,93161.19
2023-08-04T23:51:29.392Z,93142.09
2023-08-04T23:54:33.155Z,93131.00
2023-08-04T23:57:37.006Z,93131.84
